createdAt,value
2022-12-06T00:00:29.456Z,100199.41
2022-12-06T00:01:33.924Z,100208.84
2022-12-06T00:02:35.797Z,100200.19
2022-12-06T00:03:38.895Z,100207.94
2022-12-06T00:04:41.540Z,100211.38
2022-12-06T00:05:46.365Z,100201.03
2022-12-06T00:06:52.984Z,100201.00
2022-12-06T00:07:54.911Z,100204.44
2022-12-06T00:08:57.943Z,100206.16
2022-12-06T00:09:59.879Z,100204.47
2022-12-06T00:11:16.475Z,100200.16
2022-12-06T00:12:18.368Z,100201.06
2022-12-06T00:13:20.172Z,100201.00
2022-12-06T00:14:22.943Z,100201.88
2022-12-06T00:15:24.727Z,100213.94
2022-12-06T00:16:27.219Z,100200.13
2022-12-06T00:17:32.006Z,100194.09
2022-12-06T00:18:35.701Z,100201.84
2022-12-06T00:19:37.498Z,100205.31
2022-12-06T00:20:39.169Z,100202.75
2022-12-06T00:21:41.276Z,100198.44
2022-12-06T00:22:45.961Z,100194.16
2022-12-06T00:23:53.697Z,100195.00
2022-12-06T00:24:55.407Z,100195.84
2022-12-06T00:25:57.596Z,100190.66
2022-12-06T00:26:59.521Z,100198.38
2022-12-06T00:28:01.239Z,100197.50
2022-12-06T00:29:04.030Z,100193.16
2022-12-06T00:30:06.678Z,100190.56
2022-12-06T00:31:12.395Z,100190.59
2022-12-06T00:32:19.284Z,100178.56
2022-12-06T00:33:21.350Z,100189.75
2022-12-06T00:34:23.405Z,100194.06
2022-12-06T00:35:28.222Z,100192.31
2022-12-06T00:36:33.390Z,100188.00
2022-12-06T00:37:38.129Z,100183.69
2022-12-06T00:38:39.753Z,100172.56
2022-12-06T00:39:42.305Z,100179.38
2022-12-06T00:40:44.183Z,100181.13
2022-12-06T00:41:45.939Z,100177.63
2022-12-06T00:42:47.609Z,100187.97
2022-12-06T00:43:50.056Z,100175.03
2022-12-06T00:44:51.648Z,100173.31
2022-12-06T00:45:53.745Z,100180.19
2022-12-06T00:46:55.651Z,100176.69
2022-12-06T00:47:57.384Z,100181.84
2022-12-06T00:49:01.398Z,100184.44
2022-12-06T00:50:03.706Z,100183.63
2022-12-06T00:51:05.805Z,100184.44
2022-12-06T00:52:07.482Z,100180.13
2022-12-06T00:53:09.101Z,100185.34
2022-12-06T00:54:13.867Z,100184.50
2022-12-06T00:55:15.530Z,100178.44
2022-12-06T00:56:18.454Z,100187.06
2022-12-06T00:57:21.637Z,100169.91
2022-12-06T00:58:23.892Z,100181.91
2022-12-06T00:59:25.671Z,100177.59
2022-12-06T01:00:27.625Z,100179.28
2022-12-06T01:01:31.542Z,100181.88
2022-12-06T01:02:33.256Z,100181.00
2022-12-06T01:03:35.477Z,100178.44
2022-12-06T01:04:37.740Z,100179.25
2022-12-06T01:05:50.245Z,100178.41
2022-12-06T01:06:51.990Z,100177.53
2022-12-06T01:07:54.308Z,100180.13
2022-12-06T01:08:57.446Z,100170.72
2022-12-06T01:09:59.755Z,100180.97
2022-12-06T01:11:02.244Z,100176.63
2022-12-06T01:12:05.129Z,100177.53
2022-12-06T01:13:07.749Z,100181.84
2022-12-06T01:14:09.467Z,100183.56
2022-12-06T01:15:11.490Z,100175.00
2022-12-06T01:16:16.454Z,100175.84
2022-12-06T01:17:18.193Z,100178.44
2022-12-06T01:18:21.285Z,100171.53
2022-12-06T01:19:23.255Z,100172.41
2022-12-06T01:20:25.122Z,100172.41
2022-12-06T01:21:28.182Z,100169.88
2022-12-06T01:22:29.941Z,100171.59
2022-12-06T01:23:31.955Z,100174.19
2022-12-06T01:24:33.674Z,100180.22
2022-12-06T01:25:36.404Z,100181.94
2022-12-06T01:26:38.754Z,100177.63
2022-12-06T01:27:40.721Z,100175.88
2022-12-06T01:28:42.492Z,100184.53
2022-12-06T01:29:44.271Z,100180.19
2022-12-06T01:30:46.093Z,100172.47
2022-12-06T01:31:48.531Z,100169.03
2022-12-06T01:32:50.426Z,100174.16
2022-12-06T01:33:52.388Z,100171.53
2022-12-06T01:34:54.002Z,100178.44
2022-12-06T01:35:55.892Z,100170.69
2022-12-06T01:36:57.706Z,100170.69
2022-12-06T01:38:05.819Z,100172.44
2022-12-06T01:39:10.927Z,100170.69
2022-12-06T01:40:13.501Z,100167.25
2022-12-06T01:41:15.345Z,100161.19
2022-12-06T01:42:17.197Z,100170.69
2022-12-06T01:43:39.274Z,100167.25
2022-12-06T01:44:54.915Z,100163.78
2022-12-06T01:45:58.220Z,100156.94
2022-12-06T01:47:00.093Z,100166.38
2022-12-06T01:48:02.203Z,100161.19
2022-12-06T01:49:12.473Z,100168.06
2022-12-06T01:50:24.805Z,100168.13
2022-12-06T01:51:26.865Z,100172.41
2022-12-06T01:52:34.626Z,100154.38
2022-12-06T01:53:37.738Z,100164.66
2022-12-06T01:54:40.567Z,100164.66
2022-12-06T01:55:42.795Z,100167.25
2022-12-06T01:56:44.721Z,100172.41
2022-12-06T01:57:48.157Z,100160.34
2022-12-06T01:58:54.079Z,100159.53
2022-12-06T01:59:55.842Z,100162.13
2022-12-06T02:00:57.650Z,100160.34
2022-12-06T02:01:59.603Z,100154.38
2022-12-06T02:03:03.095Z,100164.69
2022-12-06T02:04:06.839Z,100163.81
2022-12-06T02:05:10.022Z,100164.66
2022-12-06T02:06:12.772Z,100165.50
2022-12-06T02:07:14.819Z,100165.50
2022-12-06T02:08:17.371Z,100162.94
2022-12-06T02:09:20.209Z,100174.13
2022-12-06T02:10:22.651Z,100172.44
2022-12-06T02:11:24.517Z,100167.25
2022-12-06T02:12:26.248Z,100169.84
2022-12-06T02:13:29.190Z,100158.72
2022-12-06T02:14:33.974Z,100168.13
2022-12-06T02:15:57.563Z,100167.25
2022-12-06T02:17:14.434Z,100164.69
2022-12-06T02:18:27.885Z,100161.19
2022-12-06T02:19:56.858Z,100158.59
2022-12-06T02:21:13.422Z,100160.34
2022-12-06T02:22:23.544Z,100155.19
2022-12-06T02:24:04.307Z,100158.59
2022-12-06T02:25:38.320Z,100151.72
2022-12-06T02:27:09.344Z,100147.44
2022-12-06T02:28:23.194Z,100151.72
2022-12-06T02:29:25.226Z,100146.56
2022-12-06T02:30:37.541Z,100180.19
2022-12-06T02:31:54.833Z,100142.25
2022-12-06T02:33:05.798Z,100132.81
2022-12-06T02:34:16.374Z,100138.81
2022-12-06T02:35:34.870Z,100149.16
2022-12-06T02:36:36.637Z,100146.56
2022-12-06T02:37:48.959Z,100146.59
2022-12-06T02:38:58.542Z,100145.72
2022-12-06T02:40:07.305Z,100145.72
2022-12-06T02:41:16.379Z,100150.00
2022-12-06T02:42:23.416Z,100146.59
2022-12-06T02:43:49.237Z,100137.09
2022-12-06T02:44:57.389Z,100142.28
2022-12-06T02:46:03.064Z,100139.75
2022-12-06T02:47:07.846Z,100150.00
2022-12-06T02:48:10.756Z,100142.25
2022-12-06T02:49:14.013Z,100140.56
2022-12-06T02:50:24.339Z,100138.81
2022-12-06T02:51:29.297Z,100145.72
2022-12-06T02:52:32.264Z,100144.88
2022-12-06T02:53:38.849Z,100120.03
2022-12-06T02:54:43.973Z,100139.72
2022-12-06T02:55:47.071Z,100144.00
2022-12-06T02:56:48.805Z,100142.31
2022-12-06T02:57:53.904Z,100144.88
2022-12-06T02:58:57.055Z,100134.56
2022-12-06T02:59:59.570Z,100145.72
2022-12-06T03:01:04.674Z,100140.53
2022-12-06T03:02:11.522Z,100141.41
2022-12-06T03:03:34.475Z,100145.72
2022-12-06T03:05:05.567Z,100146.59
2022-12-06T03:06:16.716Z,100147.44
2022-12-06T03:07:40.359Z,100143.13
2022-12-06T03:09:14.074Z,100147.44
2022-12-06T03:10:55.065Z,100145.72
2022-12-06T03:12:05.923Z,100145.72
2022-12-06T03:13:22.069Z,100139.72
2022-12-06T03:14:33.494Z,100139.72
2022-12-06T03:15:51.001Z,100128.53
2022-12-06T03:17:07.738Z,100135.41
2022-12-06T03:18:12.412Z,100137.97
2022-12-06T03:19:21.251Z,100137.09
2022-12-06T03:20:43.862Z,100135.38
2022-12-06T03:22:03.358Z,100135.38
2022-12-06T03:23:07.132Z,100133.66
2022-12-06T03:24:12.696Z,100131.06
2022-12-06T03:25:15.916Z,100131.09
2022-12-06T03:26:23.534Z,100137.97
2022-12-06T03:27:25.777Z,100131.09
2022-12-06T03:28:29.504Z,100138.84
2022-12-06T03:29:33.367Z,100132.88
2022-12-06T03:30:35.398Z,100133.66
2022-12-06T03:31:41.173Z,100130.28
2022-12-06T03:32:46.553Z,100140.53
2022-12-06T03:33:59.253Z,100132.78
2022-12-06T03:35:07.723Z,100135.38
2022-12-06T03:36:12.324Z,100151.75
2022-12-06T03:37:19.208Z,100121.69
2022-12-06T03:38:31.631Z,100128.44
2022-12-06T03:39:44.125Z,100132.72
2022-12-06T03:40:49.723Z,100138.78
2022-12-06T03:41:58.872Z,100130.13
2022-12-06T03:43:01.052Z,100137.88
2022-12-06T03:44:03.075Z,100122.44
2022-12-06T03:45:05.699Z,100130.97
2022-12-06T03:46:15.007Z,100130.09
2022-12-06T03:47:42.237Z,100138.72
2022-12-06T03:48:49.099Z,100130.97
2022-12-06T03:49:59.280Z,100129.25
2022-12-06T03:51:06.283Z,100116.38
2022-12-06T03:52:08.891Z,100121.47
2022-12-06T03:53:11.309Z,100126.63
2022-12-06T03:54:13.335Z,100113.75
2022-12-06T03:55:15.048Z,100131.78
2022-12-06T03:56:17.314Z,100129.19
2022-12-06T03:57:19.259Z,100119.69
2022-12-06T03:58:21.514Z,100130.91
2022-12-06T03:59:23.342Z,100119.69
2022-12-06T04:00:25.082Z,100125.75
2022-12-06T04:01:26.796Z,100116.25
2022-12-06T04:02:28.871Z,100124.06
2022-12-06T04:03:31.406Z,100122.34
2022-12-06T04:04:33.758Z,100122.28
2022-12-06T04:05:35.708Z,100120.56
2022-12-06T04:06:37.341Z,100117.06
2022-12-06T04:07:39.173Z,100119.66
2022-12-06T04:08:41.034Z,100119.66
2022-12-06T04:10:03.844Z,100122.28
2022-12-06T04:11:05.949Z,100129.19
2022-12-06T04:12:27.651Z,100119.78
2022-12-06T04:13:29.539Z,100119.75
2022-12-06T04:14:39.494Z,100120.59
2022-12-06T04:15:41.373Z,100118.03
2022-12-06T04:17:01.504Z,100122.34
2022-12-06T04:18:16.025Z,100116.31
2022-12-06T04:19:17.678Z,100116.28
2022-12-06T04:20:19.325Z,100113.69
2022-12-06T04:21:33.047Z,100111.97
2022-12-06T04:22:54.206Z,100107.66
2022-12-06T04:23:55.842Z,100099.09
2022-12-06T04:24:57.616Z,100107.66
2022-12-06T04:25:59.479Z,100111.13
2022-12-06T04:27:20.407Z,100109.38
2022-12-06T04:28:40.972Z,100116.31
2022-12-06T04:30:01.409Z,100109.38
2022-12-06T04:31:22.718Z,100102.53
2022-12-06T04:32:42.907Z,100111.97
2022-12-06T04:34:03.355Z,100108.50
2022-12-06T04:35:23.771Z,100106.81
2022-12-06T04:36:44.500Z,100113.66
2022-12-06T04:38:04.967Z,100105.91
2022-12-06T04:39:06.848Z,100109.31
2022-12-06T04:40:08.866Z,100106.72
2022-12-06T04:41:11.609Z,100104.97
2022-12-06T04:42:32.451Z,100111.88
2022-12-06T04:43:43.560Z,100098.94
2022-12-06T04:44:45.672Z,100094.66
2022-12-06T04:45:47.527Z,100086.91
2022-12-06T04:46:49.453Z,100092.09
2022-12-06T04:47:51.324Z,100088.72
2022-12-06T04:48:53.311Z,100089.50
2022-12-06T04:49:55.362Z,100098.13
2022-12-06T04:50:56.972Z,100093.81
2022-12-06T04:51:58.935Z,100092.94
2022-12-06T04:53:00.773Z,100086.91
2022-12-06T04:54:02.598Z,100089.44
2022-12-06T04:55:05.069Z,100086.84
2022-12-06T04:56:06.849Z,100085.09
2022-12-06T04:57:12.112Z,100085.97
2022-12-06T04:58:14.339Z,100091.13
2022-12-06T04:59:16.592Z,100074.84
2022-12-06T05:00:18.973Z,100082.56
2022-12-06T05:01:20.736Z,100092.06
2022-12-06T05:02:22.498Z,100085.16
2022-12-06T05:03:24.930Z,100087.75
2022-12-06T05:04:26.969Z,100090.28
2022-12-06T05:05:28.826Z,100091.16
2022-12-06T05:06:30.557Z,100086.84
2022-12-06T05:07:32.982Z,100083.44
2022-12-06T05:08:34.941Z,100088.59
2022-12-06T05:09:36.641Z,100090.31
2022-12-06T05:10:38.765Z,100099.84
2022-12-06T05:11:40.809Z,100086.91
2022-12-06T05:12:43.008Z,100079.19
2022-12-06T05:13:44.774Z,100086.91
2022-12-06T05:14:46.358Z,100084.34
2022-12-06T05:16:14.198Z,100087.75
2022-12-06T05:17:16.131Z,100065.50
2022-12-06T05:18:18.040Z,100086.03
2022-12-06T05:19:20.078Z,100084.31
2022-12-06T05:20:21.767Z,100084.31
2022-12-06T05:21:24.655Z,100081.75
2022-12-06T05:22:26.369Z,100082.63
2022-12-06T05:23:28.199Z,100084.31
2022-12-06T05:24:33.649Z,100083.44
2022-12-06T05:25:36.804Z,100086.03
2022-12-06T05:26:38.700Z,100078.31
2022-12-06T05:27:40.504Z,100085.22
2022-12-06T05:28:50.414Z,100087.75
2022-12-06T05:29:56.633Z,100085.19
2022-12-06T05:30:58.810Z,100099.84
2022-12-06T05:32:00.560Z,100082.59
2022-12-06T05:33:02.361Z,100092.94
2022-12-06T05:34:04.232Z,100088.63
2022-12-06T05:35:07.120Z,100091.19
2022-12-06T05:36:10.903Z,100076.59
2022-12-06T05:37:12.913Z,100085.16
2022-12-06T05:38:14.887Z,100080.84
2022-12-06T05:39:16.923Z,100079.09
2022-12-06T05:40:18.812Z,100083.44
2022-12-06T05:41:22.167Z,100082.56
2022-12-06T05:42:23.935Z,100080.00
2022-12-06T05:43:25.904Z,100079.09
2022-12-06T05:44:27.630Z,100079.94
2022-12-06T05:45:29.335Z,100079.06
2022-12-06T05:46:31.097Z,100087.66
2022-12-06T05:47:32.936Z,100079.91
2022-12-06T05:48:35.041Z,100085.09
2022-12-06T05:49:36.772Z,100082.50
2022-12-06T05:50:38.587Z,100089.44
2022-12-06T05:51:40.348Z,100072.31
2022-12-06T05:52:42.156Z,100085.16
2022-12-06T05:53:43.839Z,100084.25
2022-12-06T05:54:45.627Z,100077.44
2022-12-06T05:55:48.355Z,100085.97
2022-12-06T05:56:50.656Z,100083.44
2022-12-06T05:57:52.880Z,100077.41
2022-12-06T05:58:54.736Z,100079.09
2022-12-06T05:59:58.918Z,100076.50
2022-12-06T06:01:01.366Z,100083.38
2022-12-06T06:02:03.263Z,100084.22
2022-12-06T06:03:05.820Z,100085.97
2022-12-06T06:04:07.694Z,100075.66
2022-12-06T06:05:09.396Z,100086.84
2022-12-06T06:06:11.220Z,100075.69
2022-12-06T06:07:12.990Z,100077.38
2022-12-06T06:08:14.906Z,100089.50
2022-12-06T06:09:16.578Z,100079.16
2022-12-06T06:10:18.607Z,100071.38
2022-12-06T06:11:21.509Z,100081.69
2022-12-06T06:12:23.509Z,100073.94
2022-12-06T06:13:25.500Z,100078.28
2022-12-06T06:14:27.208Z,100080.84
2022-12-06T06:15:28.898Z,100075.66
2022-12-06T06:16:30.913Z,100058.59
2022-12-06T06:17:34.428Z,100084.31
2022-12-06T06:18:36.346Z,100090.25
2022-12-06T06:19:37.980Z,100082.50
2022-12-06T06:20:39.771Z,100088.53
2022-12-06T06:21:44.284Z,100086.78
2022-12-06T06:22:45.892Z,100088.50
2022-12-06T06:23:47.698Z,100083.34
2022-12-06T06:24:49.334Z,100084.19
2022-12-06T06:25:51.481Z,100083.34
2022-12-06T06:26:53.412Z,100081.63
2022-12-06T06:27:55.571Z,100087.63
2022-12-06T06:28:57.240Z,100083.38
2022-12-06T06:29:59.164Z,100078.19
2022-12-06T06:31:06.032Z,100083.28
2022-12-06T06:32:07.849Z,100089.31
2022-12-06T06:33:10.095Z,100092.81
2022-12-06T06:34:11.843Z,100078.16
2022-12-06T06:35:13.555Z,100087.69
2022-12-06T06:36:15.219Z,100075.69
2022-12-06T06:37:17.086Z,100085.97
2022-12-06T06:38:18.921Z,100084.25
2022-12-06T06:39:20.604Z,100081.66
2022-12-06T06:40:22.924Z,100089.44
2022-12-06T06:41:24.895Z,100079.94
2022-12-06T06:42:27.319Z,100085.13
2022-12-06T06:43:30.409Z,100072.22
2022-12-06T06:44:32.999Z,100087.69
2022-12-06T06:45:34.916Z,100080.84
2022-12-06T06:46:36.852Z,100077.38
2022-12-06T06:47:38.681Z,100081.63
2022-12-06T06:48:40.772Z,100081.63
2022-12-06T06:49:42.486Z,100078.25
2022-12-06T06:50:46.228Z,100083.41
2022-12-06T06:51:48.262Z,100087.72
2022-12-06T06:52:50.081Z,100093.75
2022-12-06T06:53:51.767Z,100088.59
2022-12-06T06:54:53.511Z,100085.97
2022-12-06T06:55:55.585Z,100091.16
2022-12-06T06:56:57.843Z,100085.13
2022-12-06T06:57:59.631Z,100094.63
2022-12-06T06:59:01.494Z,100088.53
2022-12-06T07:00:04.983Z,100092.00
2022-12-06T07:01:08.944Z,100080.84
2022-12-06T07:02:15.448Z,100086.81
2022-12-06T07:03:17.179Z,100097.97
2022-12-06T07:04:19.125Z,100107.44
2022-12-06T07:05:20.961Z,100100.50
2022-12-06T07:06:22.852Z,100103.97
2022-12-06T07:07:24.882Z,100097.88
2022-12-06T07:08:28.073Z,100091.84
2022-12-06T07:09:29.923Z,100101.31
2022-12-06T07:10:31.838Z,100106.47
2022-12-06T07:11:36.419Z,100106.47
2022-12-06T07:12:38.141Z,100094.53
2022-12-06T07:13:41.968Z,100103.06
2022-12-06T07:14:43.799Z,100098.78
2022-12-06T07:15:45.629Z,100109.03
2022-12-06T07:16:47.388Z,100105.56
2022-12-06T07:17:51.501Z,100105.53
2022-12-06T07:18:54.061Z,100113.31
2022-12-06T07:19:56.442Z,100105.53
2022-12-06T07:21:04.676Z,100113.28
2022-12-06T07:22:06.384Z,100107.25
2022-12-06T07:23:08.142Z,100102.13
2022-12-06T07:24:09.983Z,100104.69
2022-12-06T07:25:11.769Z,100109.84
2022-12-06T07:26:22.683Z,100111.53
2022-12-06T07:27:24.461Z,100111.53
2022-12-06T07:28:26.272Z,100123.63
2022-12-06T07:29:28.067Z,100106.38
2022-12-06T07:30:29.819Z,100121.03
2022-12-06T07:31:32.207Z,100111.59
2022-12-06T07:32:36.902Z,100112.50
2022-12-06T07:33:39.565Z,100114.22
2022-12-06T07:34:41.279Z,100112.50
2022-12-06T07:36:10.995Z,100120.25
2022-12-06T07:37:07.867Z,100122.81
2022-12-06T07:38:09.633Z,100115.88
2022-12-06T07:39:14.825Z,100115.03
2022-12-06T07:40:20.931Z,100104.72
2022-12-06T07:41:55.946Z,100116.69
2022-12-06T07:43:16.431Z,100116.69
2022-12-06T07:44:37.037Z,100118.38
2022-12-06T07:45:38.874Z,100108.97
2022-12-06T07:46:41.501Z,100115.84
2022-12-06T07:47:44.561Z,100123.50
2022-12-06T07:48:46.209Z,100116.59
2022-12-06T07:49:48.114Z,100115.72
2022-12-06T07:50:52.738Z,100116.56
2022-12-06T07:51:57.858Z,100126.91
2022-12-06T07:52:59.688Z,100103.72
2022-12-06T07:54:01.877Z,100113.06
2022-12-06T07:55:05.301Z,100109.63
2022-12-06T07:56:08.018Z,100113.06
2022-12-06T07:57:09.785Z,100110.47
2022-12-06T07:58:11.428Z,100118.22
2022-12-06T07:59:13.359Z,100106.13
2022-12-06T08:00:16.416Z,100111.28
2022-12-06T08:01:18.527Z,100115.56
2022-12-06T08:02:22.892Z,100107.81
2022-12-06T08:03:24.702Z,100104.38
2022-12-06T08:04:26.796Z,100108.72
2022-12-06T08:05:28.528Z,100117.34
2022-12-06T08:06:32.033Z,100107.81
2022-12-06T08:07:33.741Z,100113.84
2022-12-06T08:08:36.602Z,100112.13
2022-12-06T08:09:38.627Z,100109.50
2022-12-06T08:10:40.838Z,100108.63
2022-12-06T08:11:42.855Z,100112.91
2022-12-06T08:12:44.817Z,100110.34
2022-12-06T08:13:46.765Z,100115.44
2022-12-06T08:14:48.940Z,100118.03
2022-12-06T08:15:50.705Z,100112.84
2022-12-06T08:16:52.377Z,100112.84
2022-12-06T08:17:54.361Z,100110.22
2022-12-06T08:18:56.794Z,100109.44
2022-12-06T08:19:58.884Z,100103.44
2022-12-06T08:21:01.041Z,100110.31
2022-12-06T08:22:02.908Z,100109.44
2022-12-06T08:23:04.715Z,100112.84
2022-12-06T08:24:06.697Z,100116.28
2022-12-06T08:25:08.852Z,100111.09
2022-12-06T08:26:14.449Z,100105.91
2022-12-06T08:27:18.275Z,100111.97
2022-12-06T08:28:20.124Z,100107.66
2022-12-06T08:29:22.859Z,100109.41
2022-12-06T08:30:24.639Z,100105.94
2022-12-06T08:31:26.504Z,100107.69
2022-12-06T08:32:28.529Z,100106.84
2022-12-06T08:33:33.039Z,100106.88
2022-12-06T08:34:34.720Z,100107.78
2022-12-06T08:35:37.509Z,100104.31
2022-12-06T08:36:40.661Z,100100.84
2022-12-06T08:37:42.376Z,100112.84
2022-12-06T08:38:44.905Z,100110.19
2022-12-06T08:39:46.797Z,100103.28
2022-12-06T08:40:48.579Z,100105.81
2022-12-06T08:41:56.333Z,100109.22
2022-12-06T08:42:58.197Z,100110.03
2022-12-06T08:44:01.894Z,100102.31
2022-12-06T08:45:04.214Z,100099.66
2022-12-06T08:46:06.130Z,100109.06
2022-12-06T08:47:07.962Z,100096.16
2022-12-06T08:48:09.590Z,100109.88
2022-12-06T08:49:12.902Z,100110.72
2022-12-06T08:50:14.543Z,100112.44
2022-12-06T08:51:16.418Z,100087.56
2022-12-06T08:52:18.666Z,100111.59
2022-12-06T08:53:20.591Z,100116.75
2022-12-06T08:54:25.045Z,100113.31
2022-12-06T08:55:26.795Z,100111.50
2022-12-06T08:56:29.100Z,100110.72
2022-12-06T08:57:33.013Z,100121.09
2022-12-06T08:58:34.746Z,100121.97
2022-12-06T09:01:38.181Z,100126.34
2022-12-06T09:02:41.796Z,100116.13
2022-12-06T09:03:44.036Z,100133.28
2022-12-06T09:04:45.968Z,100128.09
2022-12-06T09:05:48.052Z,100131.53
2022-12-06T09:06:50.083Z,100134.16
2022-12-06T09:07:52.149Z,100133.28
2022-12-06T09:08:54.201Z,100138.50
2022-12-06T09:09:56.009Z,100141.19
2022-12-06T09:10:57.780Z,100133.38
2022-12-06T09:11:59.525Z,100139.50
2022-12-06T09:13:01.289Z,100132.66
2022-12-06T09:14:03.737Z,100143.88
2022-12-06T09:15:06.375Z,100142.19
2022-12-06T09:16:14.349Z,100141.34
2022-12-06T09:17:16.180Z,100145.72
2022-12-06T09:18:17.995Z,100142.31
2022-12-06T09:19:20.865Z,100133.72
2022-12-06T09:20:22.722Z,100144.88
2022-12-06T09:21:26.205Z,100140.53
2022-12-06T09:22:30.754Z,100143.09
2022-12-06T09:23:33.212Z,100149.97
2022-12-06T09:24:34.933Z,100143.03
2022-12-06T09:25:36.669Z,100142.09
2022-12-06T09:26:38.428Z,100150.69
2022-12-06T09:27:40.074Z,100142.06
2022-12-06T09:28:44.915Z,100148.91
2022-12-06T09:29:47.359Z,100160.09
2022-12-06T09:30:49.177Z,100146.25
2022-12-06T09:31:51.369Z,100149.75
2022-12-06T09:32:54.883Z,100154.19
2022-12-06T09:33:56.887Z,100153.34
2022-12-06T09:34:58.480Z,100155.19
2022-12-06T09:36:05.549Z,100158.59
2022-12-06T09:37:12.417Z,100154.25
2022-12-06T09:38:14.422Z,100155.97
2022-12-06T09:39:25.324Z,100155.09
2022-12-06T09:40:41.252Z,100158.56
2022-12-06T09:42:06.152Z,100154.22
2022-12-06T09:43:15.498Z,100151.59
2022-12-06T09:44:32.207Z,100152.44
2022-12-06T09:45:40.148Z,100156.84
2022-12-06T09:46:47.749Z,100152.50
2022-12-06T09:48:26.688Z,100151.66
2022-12-06T09:50:10.041Z,100156.84
2022-12-06T09:51:21.286Z,100148.16
2022-12-06T09:52:37.572Z,100144.78
2022-12-06T09:54:12.704Z,100149.88
2022-12-06T09:55:23.556Z,100155.09
2022-12-06T09:56:25.305Z,100154.25
2022-12-06T09:57:33.272Z,100124.31
2022-12-06T09:58:47.078Z,100148.31
2022-12-06T10:00:15.413Z,100150.94
2022-12-06T10:01:24.382Z,100146.59
2022-12-06T10:02:37.367Z,100148.28
2022-12-06T10:04:08.520Z,100147.34
2022-12-06T10:05:22.331Z,100152.50
2022-12-06T10:06:30.722Z,100145.66
2022-12-06T10:07:45.565Z,100143.06
2022-12-06T10:09:06.066Z,100144.72
2022-12-06T10:10:28.302Z,100137.75
2022-12-06T10:12:05.420Z,100138.53
2022-12-06T10:13:36.675Z,100126.38
2022-12-06T10:15:07.182Z,100132.28
2022-12-06T10:16:20.987Z,100134.84
2022-12-06T10:17:31.695Z,100129.69
2022-12-06T10:18:54.042Z,100132.44
2022-12-06T10:20:14.592Z,100131.59
2022-12-06T10:21:25.309Z,100132.56
2022-12-06T10:22:45.576Z,100128.28
2022-12-06T10:24:19.397Z,100129.16
2022-12-06T10:25:38.251Z,100122.25
2022-12-06T10:26:52.025Z,100118.78
2022-12-06T10:27:56.861Z,100120.47
2022-12-06T10:29:10.408Z,100120.47
2022-12-06T10:30:14.924Z,100121.28
2022-12-06T10:31:28.339Z,100120.47
2022-12-06T10:32:35.883Z,100111.00
2022-12-06T10:33:40.912Z,100111.91
2022-12-06T10:34:55.396Z,100105.81
2022-12-06T10:36:06.234Z,100111.81
2022-12-06T10:37:20.335Z,100107.56
2022-12-06T10:38:33.200Z,100110.16
2022-12-06T10:39:58.035Z,100103.28
2022-12-06T10:41:06.476Z,100109.34
2022-12-06T10:42:27.248Z,100103.25
2022-12-06T10:44:02.476Z,100105.81
2022-12-06T10:45:37.643Z,100110.09
2022-12-06T10:47:05.973Z,100099.72
2022-12-06T10:48:17.928Z,100110.06
2022-12-06T10:49:24.032Z,100114.31
2022-12-06T10:50:30.605Z,100109.97
2022-12-06T10:51:56.830Z,100088.50
2022-12-06T10:53:13.407Z,100084.13
2022-12-06T10:54:33.115Z,100110.56
2022-12-06T10:55:56.777Z,100110.59
2022-12-06T10:57:03.887Z,100125.28
2022-12-06T10:58:24.689Z,100123.56
2022-12-06T10:59:51.740Z,100120.19
2022-12-06T11:00:59.666Z,100119.25
2022-12-06T11:02:18.074Z,100115.75
2022-12-06T11:03:41.583Z,100116.53
2022-12-06T11:04:46.464Z,100121.66
2022-12-06T11:06:00.674Z,100119.94
2022-12-06T11:07:20.038Z,100119.91
2022-12-06T11:08:36.134Z,100115.56
2022-12-06T11:09:44.784Z,100105.28
2022-12-06T11:10:47.733Z,100116.34
2022-12-06T11:11:50.919Z,100122.34
2022-12-06T11:13:02.359Z,100114.50
2022-12-06T11:14:23.780Z,100119.53
2022-12-06T11:15:30.012Z,100118.69
2022-12-06T11:16:43.291Z,100116.16
2022-12-06T11:18:14.537Z,100112.81
2022-12-06T11:20:01.233Z,100116.41
2022-12-06T11:21:12.924Z,100112.91
2022-12-06T11:22:33.556Z,100117.09
2022-12-06T11:23:59.268Z,100113.56
2022-12-06T11:25:16.050Z,100116.94
2022-12-06T11:26:23.622Z,100102.22
2022-12-06T11:27:40.226Z,100085.16
2022-12-06T11:28:55.530Z,100109.91
2022-12-06T11:29:57.840Z,100103.97
2022-12-06T11:31:00.324Z,100110.75
2022-12-06T11:32:07.971Z,100109.84
2022-12-06T11:33:10.343Z,100113.28
2022-12-06T11:34:24.014Z,100112.34
2022-12-06T11:35:27.737Z,100113.25
2022-12-06T11:36:30.194Z,100114.25
2022-12-06T11:37:34.267Z,100104.72
2022-12-06T11:38:39.917Z,100108.16
2022-12-06T11:39:41.584Z,100108.09
2022-12-06T11:40:46.987Z,100095.22
2022-12-06T11:41:55.709Z,100103.81
2022-12-06T11:43:01.144Z,100105.59
2022-12-06T11:44:03.498Z,100104.72
2022-12-06T11:45:23.256Z,100103.91
2022-12-06T11:46:25.628Z,100097.03
2022-12-06T11:47:27.728Z,100105.63
2022-12-06T11:48:33.757Z,100106.47
2022-12-06T11:49:40.535Z,100104.72
2022-12-06T11:50:44.624Z,100103.09
2022-12-06T11:51:46.827Z,100107.44
2022-12-06T11:53:03.992Z,100110.91
2022-12-06T11:54:29.767Z,100106.63
2022-12-06T11:55:44.031Z,100113.47
2022-12-06T11:56:46.792Z,100113.56
2022-12-06T11:58:14.689Z,100116.13
2022-12-06T11:59:29.757Z,100102.31
2022-12-06T12:00:31.819Z,100108.28
2022-12-06T12:01:48.345Z,100104.72
2022-12-06T12:02:53.474Z,100106.41
2022-12-06T12:03:55.437Z,100100.44
2022-12-06T12:05:14.298Z,100097.84
2022-12-06T12:06:18.841Z,100105.50
2022-12-06T12:07:23.524Z,100104.66
2022-12-06T12:08:29.745Z,100102.88
2022-12-06T12:09:45.179Z,100103.81
2022-12-06T12:10:59.177Z,100102.06
2022-12-06T12:12:05.486Z,100098.63
2022-12-06T12:13:32.181Z,100103.31
2022-12-06T12:14:39.458Z,100107.94
2022-12-06T12:15:51.734Z,100112.13
2022-12-06T12:17:01.172Z,100097.41
2022-12-06T12:18:06.246Z,100104.31
2022-12-06T12:19:43.210Z,100099.16
2022-12-06T12:20:46.740Z,100072.69
2022-12-06T12:21:54.097Z,100101.00
2022-12-06T12:23:15.162Z,100096.75
2022-12-06T12:25:17.759Z,100096.81
2022-12-06T12:26:18.526Z,100100.19
2022-12-06T12:27:46.374Z,100093.22
2022-12-06T12:29:06.397Z,100094.03
2022-12-06T12:30:36.602Z,100084.88
2022-12-06T12:31:57.076Z,100096.72
2022-12-06T12:33:08.329Z,100095.72
2022-12-06T12:34:14.800Z,100105.16
2022-12-06T12:35:25.361Z,100092.97
2022-12-06T12:36:29.284Z,100093.78
2022-12-06T12:37:31.352Z,100090.19
2022-12-06T12:38:42.406Z,100061.00
2022-12-06T12:39:54.149Z,100089.16
2022-12-06T12:41:01.862Z,100096.94
2022-12-06T12:42:04.781Z,100090.00
2022-12-06T12:43:19.648Z,100089.09
2022-12-06T12:44:37.699Z,100085.53
2022-12-06T12:46:03.100Z,100082.91